createdAt,value
2023-04-07T00:01:37.124Z,9.35
2023-04-07T00:06:43.487Z,9.15
2023-04-07T00:11:48.745Z,8.75
2023-04-07T00:16:52.055Z,8.10
2023-04-07T00:21:56.650Z,9.02
2023-04-07T00:27:01.046Z,8.70
2023-04-07T00:32:04.983Z,8.52
2023-04-07T00:37:10.088Z,10.48
2023-04-07T00:42:13.427Z,8.23
2023-04-07T00:47:17.186Z,8.00
2023-04-07T00:52:27.410Z,8.35
2023-04-07T00:57:30.740Z,7.13
2023-04-07T01:02:40.099Z,7.00
2023-04-07T01:07:54.053Z,7.68
2023-04-07T01:13:04.432Z,6.97
2023-04-07T01:18:14.160Z,7.05
2023-04-07T01:23:26.667Z,7.43
2023-04-07T01:28:51.531Z,6.80
2023-04-07T01:33:58.627Z,7.40
2023-04-07T01:39:02.358Z,6.88
2023-04-07T01:44:08.032Z,6.97
2023-04-07T01:54:17.088Z,6.63
2023-04-07T01:59:20.951Z,6.78
2023-04-07T02:04:32.742Z,6.35
2023-04-07T02:09:41.612Z,6.93
2023-04-07T02:14:45.534Z,6.72
2023-04-07T02:19:54.996Z,7.85
2023-04-07T02:24:58.453Z,7.57
2023-04-07T02:30:03.680Z,7.15
2023-04-07T02:35:09.228Z,7.63
2023-04-07T02:40:13.163Z,7.28
2023-04-07T02:45:17.320Z,7.30
2023-04-07T02:50:22.482Z,6.97
2023-04-07T02:55:26.400Z,6.97
2023-04-07T03:00:30.222Z,7.72
2023-04-07T03:05:43.739Z,6.90
2023-04-07T03:10:48.991Z,7.75
2023-04-07T03:15:57.198Z,6.32
2023-04-07T03:21:03.922Z,7.32
2023-04-07T03:26:08.351Z,7.50
2023-04-07T03:31:14.570Z,8.02
2023-04-07T03:36:20.065Z,7.68
2023-04-07T03:41:24.571Z,8.75
2023-04-07T03:46:28.264Z,8.82
2023-04-07T03:51:33.316Z,8.43
2023-04-07T03:56:38.990Z,8.18
2023-04-07T04:01:42.994Z,8.02
2023-04-07T04:06:52.751Z,7.75
2023-04-07T04:12:26.103Z,7.55
2023-04-07T04:17:40.896Z,7.95
2023-04-07T04:22:46.916Z,8.00
2023-04-07T04:27:50.925Z,8.23
2023-04-07T04:32:58.432Z,7.68
2023-04-07T04:38:12.609Z,7.32
2023-04-07T04:43:22.897Z,7.47
2023-04-07T04:48:27.589Z,8.32
2023-04-07T04:53:32.951Z,8.25
2023-04-07T04:58:40.697Z,8.05
2023-04-07T05:03:46.304Z,8.75
2023-04-07T05:08:59.858Z,7.97
2023-04-07T05:14:09.329Z,9.88
2023-04-07T05:19:16.400Z,8.43
2023-04-07T05:24:22.025Z,9.45
2023-04-07T05:29:31.047Z,12.15
2023-04-07T05:34:34.866Z,10.05
2023-04-07T05:39:41.078Z,9.00
2023-04-07T05:44:47.986Z,10.10
2023-04-07T05:49:51.516Z,9.60
2023-04-07T05:54:57.608Z,10.23
2023-04-07T06:00:04.929Z,10.20
2023-04-07T06:05:17.502Z,9.70
2023-04-07T06:10:23.606Z,8.30
2023-04-07T06:15:27.375Z,8.70
2023-04-07T06:20:31.522Z,8.70
2023-04-07T06:25:36.867Z,7.88
2023-04-07T06:30:41.134Z,8.68
2023-04-07T06:35:47.718Z,8.25
2023-04-07T06:40:52.839Z,8.48
2023-04-07T06:45:56.565Z,8.93
2023-04-07T06:51:00.163Z,8.65
2023-04-07T06:56:10.025Z,7.72
2023-04-07T07:01:13.637Z,7.38
2023-04-07T07:06:16.988Z,7.78
2023-04-07T07:11:21.802Z,7.20
2023-04-07T07:16:25.145Z,8.40
2023-04-07T07:21:28.716Z,7.50
2023-04-07T07:26:33.700Z,6.93
2023-04-07T07:31:37.378Z,6.80
2023-04-07T07:36:41.016Z,7.85
2023-04-07T07:41:46.881Z,7.40
2023-04-07T07:46:50.139Z,8.70
2023-04-07T07:51:53.327Z,7.85
2023-04-07T07:56:57.871Z,7.57
2023-04-07T08:02:01.610Z,7.17
2023-04-07T08:07:05.486Z,7.28
2023-04-07T08:12:10.500Z,6.80
2023-04-07T08:17:14.225Z,5.37
2023-04-07T08:22:19.998Z,6.53
2023-04-07T08:27:25.075Z,6.15
2023-04-07T08:32:36.635Z,6.43
2023-04-07T08:37:41.507Z,6.68
2023-04-07T08:42:49.967Z,6.90
2023-04-07T08:47:58.095Z,6.88
2023-04-07T08:53:05.829Z,7.63
2023-04-07T08:58:13.681Z,7.85
2023-04-07T09:03:18.444Z,7.93
2023-04-07T09:08:22.038Z,8.03
2023-04-07T09:13:27.658Z,7.15
2023-04-07T09:23:36.607Z,6.85
2023-04-07T09:28:43.722Z,5.93
2023-04-07T09:33:47.707Z,6.40
2023-04-07T09:38:51.748Z,6.00
2023-04-07T09:43:59.605Z,6.53
2023-04-07T09:49:06.220Z,6.68
2023-04-07T09:54:11.011Z,6.72
2023-04-07T09:59:17.812Z,7.10
2023-04-07T10:04:22.847Z,6.90
2023-04-07T10:09:29.241Z,7.63
2023-04-07T10:14:34.392Z,6.85
2023-04-07T10:19:38.657Z,6.60
2023-04-07T10:24:52.216Z,5.40
2023-04-07T10:29:58.952Z,6.65
2023-04-07T10:35:02.585Z,6.93
2023-04-07T10:40:31.728Z,7.40
2023-04-07T10:45:56.701Z,6.78
2023-04-07T10:51:19.041Z,6.83
2023-04-07T10:56:22.543Z,6.90
2023-04-07T11:01:28.822Z,6.20
2023-04-07T11:06:32.430Z,6.32
2023-04-07T11:11:42.089Z,6.43
2023-04-07T11:16:46.795Z,6.03
2023-04-07T11:21:50.335Z,6.73
2023-04-07T11:26:53.941Z,6.22
2023-04-07T11:32:00.381Z,6.47
2023-04-07T11:37:21.974Z,6.68
2023-04-07T11:42:35.272Z,6.10
2023-04-07T11:47:42.223Z,6.90
2023-04-07T11:52:46.503Z,6.97
2023-04-07T11:57:51.991Z,6.32
2023-04-07T12:02:57.188Z,6.10
2023-04-07T12:08:01.200Z,5.65
2023-04-07T12:13:04.861Z,5.82
2023-04-07T12:18:09.986Z,5.25
2023-04-07T12:23:13.666Z,5.93
2023-04-07T12:28:17.208Z,6.18
2023-04-07T12:33:22.301Z,5.75
2023-04-07T12:38:26.061Z,5.95
2023-04-07T12:43:29.721Z,5.38
2023-04-07T12:48:34.807Z,6.70
2023-04-07T12:53:38.410Z,5.75
2023-04-07T12:58:41.650Z,5.90
2023-04-07T13:03:46.505Z,5.95
2023-04-07T13:08:49.833Z,6.15
2023-04-07T13:13:54.922Z,6.38
2023-04-07T13:19:02.384Z,6.80
2023-04-07T13:24:05.860Z,6.75
2023-04-07T13:29:09.129Z,6.10
2023-04-07T13:34:14.338Z,6.10
2023-04-07T13:39:17.656Z,5.53
2023-04-07T13:44:21.621Z,6.22
2023-04-07T13:49:26.616Z,6.45
2023-04-07T13:54:30.357Z,5.60
2023-04-07T13:59:33.957Z,5.78
2023-04-07T14:04:39.089Z,5.82
2023-04-07T14:09:43.093Z,5.60
2023-04-07T14:14:46.644Z,5.22
2023-04-07T14:19:51.804Z,5.90
2023-04-07T14:24:55.596Z,6.57
2023-04-07T14:29:59.692Z,5.30
2023-04-07T14:35:04.782Z,5.18
2023-04-07T14:40:09.954Z,5.20
2023-04-07T14:45:14.305Z,5.28
2023-04-07T14:50:19.645Z,4.93
2023-04-07T14:55:23.753Z,5.40
2023-04-07T15:00:29.110Z,5.00
2023-04-07T15:05:34.240Z,5.88
2023-04-07T15:10:39.782Z,5.03
2023-04-07T15:20:48.294Z,4.57
2023-04-07T15:25:56.328Z,4.63
2023-04-07T15:31:00.787Z,4.95
2023-04-07T15:36:06.003Z,4.32
2023-04-07T15:41:09.627Z,3.70
2023-04-07T15:46:13.257Z,4.63
2023-04-07T15:51:17.882Z,3.75
2023-04-07T15:56:23.435Z,3.97
2023-04-07T16:06:32.119Z,3.95
2023-04-07T16:11:35.960Z,3.90
2023-04-07T16:16:41.692Z,4.57
2023-04-07T16:21:46.789Z,4.05
2023-04-07T16:26:51.705Z,4.07
2023-04-07T16:31:55.475Z,4.85
2023-04-07T16:37:00.196Z,5.00
2023-04-07T16:42:04.391Z,4.18
2023-04-07T16:47:08.002Z,4.43
2023-04-07T16:52:13.122Z,4.22
2023-04-07T16:57:17.055Z,4.65
2023-04-07T17:02:20.538Z,5.40
2023-04-07T17:07:25.315Z,4.35
2023-04-07T17:12:28.977Z,5.30
2023-04-07T17:17:32.525Z,4.13
2023-04-07T17:22:37.537Z,4.20
2023-04-07T17:27:41.116Z,3.90
2023-04-07T17:32:44.324Z,4.32
2023-04-07T17:37:49.313Z,3.95
2023-04-07T17:42:53.807Z,3.83
2023-04-07T17:47:57.088Z,3.75
2023-04-07T17:53:02.006Z,5.47
2023-04-07T17:58:06.583Z,4.95
2023-04-07T18:03:11.159Z,3.67
2023-04-07T18:08:15.862Z,3.75
2023-04-07T18:13:19.188Z,3.75
2023-04-07T18:18:22.410Z,3.38
2023-04-07T18:23:27.098Z,3.92
2023-04-07T18:28:31.071Z,3.37
2023-04-07T18:33:35.052Z,2.58
2023-04-07T18:38:39.674Z,4.00
2023-04-07T18:43:42.984Z,3.97
2023-04-07T18:48:46.631Z,3.33
2023-04-07T18:53:51.417Z,3.45
2023-04-07T18:58:54.998Z,3.63
2023-04-07T19:03:59.200Z,3.60
2023-04-07T19:09:04.964Z,4.55
2023-04-07T19:19:12.053Z,3.95
2023-04-07T19:24:16.789Z,5.35
2023-04-07T19:29:20.393Z,5.20
2023-04-07T19:34:23.973Z,6.70
2023-04-07T19:39:29.236Z,8.02
2023-04-07T19:44:32.718Z,7.15
2023-04-07T19:49:36.369Z,7.80
2023-04-07T19:54:40.893Z,8.68
2023-04-07T19:59:44.186Z,7.93
2023-04-07T20:04:47.726Z,7.85
2023-04-07T20:09:54.034Z,7.88
2023-04-07T20:14:57.420Z,8.27
2023-04-07T20:20:01.444Z,7.60
2023-04-07T20:25:07.364Z,7.70
2023-04-07T20:30:11.133Z,7.78
2023-04-07T20:35:14.952Z,6.60
2023-04-07T20:40:19.983Z,5.18
2023-04-07T20:45:23.422Z,4.22
2023-04-07T20:50:27.045Z,4.47
2023-04-07T20:55:31.989Z,4.65
2023-04-07T21:00:35.303Z,5.32
2023-04-07T21:05:39.826Z,5.18
2023-04-07T21:10:44.446Z,5.03
2023-04-07T21:15:48.142Z,6.07
2023-04-07T21:20:51.456Z,6.30
2023-04-07T21:26:00.416Z,5.40
2023-04-07T21:31:04.461Z,5.40
2023-04-07T21:36:08.655Z,5.15
2023-04-07T21:41:13.730Z,5.10
2023-04-07T21:46:18.052Z,4.85
2023-04-07T21:51:21.579Z,4.95
2023-04-07T21:56:28.724Z,5.60
2023-04-07T22:01:32.497Z,4.70
2023-04-07T22:06:35.839Z,5.47
2023-04-07T22:11:40.896Z,4.82
2023-04-07T22:16:44.433Z,4.03
2023-04-07T22:21:47.649Z,3.80
2023-04-07T22:26:53.945Z,4.72
2023-04-07T22:31:57.634Z,3.75
2023-04-07T22:37:01.228Z,3.22
2023-04-07T22:42:06.403Z,4.22
2023-04-07T22:47:10.608Z,3.35
2023-04-07T22:52:14.279Z,4.00
2023-04-07T22:57:19.246Z,3.35
2023-04-07T23:02:22.959Z,3.93
2023-04-07T23:07:26.785Z,3.25
2023-04-07T23:12:32.006Z,4.60
2023-04-07T23:17:35.897Z,4.55
2023-04-07T23:22:39.456Z,4.20
2023-04-07T23:27:44.474Z,4.22
2023-04-07T23:32:48.239Z,3.38
2023-04-07T23:37:51.533Z,4.05
2023-04-07T23:42:56.427Z,5.15
2023-04-07T23:48:00.173Z,4.60
2023-04-07T23:53:04.450Z,5.05
2023-04-07T23:58:09.061Z,4.10
